Time;durP1;ratioP1;P1;durP2;ratioP2;P2;SDS_P1;SDS_P2;PMS_P1;PMS_P2;Temp;Humidity;BMP_temperature;BMP_pressure;BME280_temperature;BME280_humidity;BME280_pressure;Samples;Min_cycle;Max_cycle;Signal;HPM_P1;HPM_P2
2021/03/07 00:00:41;;;;;;;21.40;9.73;;;;;;;-3.23;75.84;99453.77;1724009;83;21166;-56
2021/03/07 00:03:11;;;;;;;21.20;10.33;;;;;;;-3.25;75.98;99448.72;1724104;83;21157;-56
2021/03/07 00:05:40;;;;;;;20.67;10.10;;;;;;;-3.24;76.27;99440.05;1724269;83;21162;-56
2021/03/07 00:08:09;;;;;;;20.20;10.07;;;;;;;-3.25;76.41;99435.83;1724204;82;21169;-55
2021/03/07 00:10:40;;;;;;;22.30;10.32;;;;;;;-3.25;76.73;99425.52;1724084;82;21633;-55
2021/03/07 00:13:11;;;;;;;;;;;;;;;-3.25;76.90;99419.53;1726950;82;21150;-56
2021/03/07 00:15:41;;;;;;;21.97;9.90;;;;;;;-3.23;77.03;99415.91;1724369;83;20144;-56
2021/03/07 00:18:11;;;;;;;22.93;10.67;;;;;;;-3.23;77.17;99414.61;1724036;83;21134;-55
2021/03/07 00:20:42;;;;;;;21.02;10.00;;;;;;;-3.22;77.41;99413.67;1724453;83;21570;-56
2021/03/07 00:23:11;;;;;;;21.60;11.17;;;;;;;-3.19;77.56;99406.21;1724317;83;21138;-55
2021/03/07 00:25:41;;;;;;;22.60;11.10;;;;;;;-3.16;77.60;99405.16;1724147;83;21162;-55
2021/03/07 00:28:10;;;;;;;21.50;9.97;;;;;;;-3.14;77.69;99397.69;1724420;82;21158;-56
2021/03/07 00:30:39;;;;;;;22.33;9.97;;;;;;;-3.13;77.71;99394.64;1724434;83;21178;-56
2021/03/07 00:33:11;;;;;;;22.13;10.20;;;;;;;-3.14;77.82;99391.24;1724290;83;21284;-55
2021/03/07 00:35:41;;;;;;;21.40;10.60;;;;;;;-3.11;77.94;99388.90;1724405;83;21186;-55
2021/03/07 00:38:11;;;;;;;21.33;10.43;;;;;;;-3.09;78.12;99381.90;1724419;83;21170;-56
2021/03/07 00:40:40;;;;;;;22.00;10.93;;;;;;;-3.07;78.12;99380.84;1724282;83;21178;-56
2021/03/07 00:43:10;;;;;;;21.30;10.30;;;;;;;-3.06;78.15;99381.67;1724358;83;21303;-56
2021/03/07 00:45:39;;;;;;;22.53;10.43;;;;;;;-3.02;78.22;99381.34;1719937;83;21190;-56
2021/03/07 00:48:09;;;;;;;22.03;10.67;;;;;;;-3.00;78.16;99371.73;1710772;84;21174;-56
2021/03/07 00:50:38;;;;;;;23.87;10.47;;;;;;;-2.98;78.16;99367.30;1710599;84;21143;-56
2021/03/07 00:53:08;;;;;;;24.13;11.33;;;;;;;-2.97;78.13;99366.38;1710597;82;21345;-57
2021/03/07 00:55:38;;;;;;;21.77;10.50;;;;;;;-2.98;78.16;99362.62;1710678;84;21138;-56
2021/03/07 00:58:07;;;;;;;23.70;11.33;;;;;;;-2.98;78.42;99352.30;1710827;84;21178;-55
2021/03/07 01:00:37;;;;;;;20.67;10.37;;;;;;;-2.96;78.44;99350.42;1710745;84;21142;-56
2021/03/07 01:03:06;;;;;;;22.97;11.50;;;;;;;-2.94;78.57;99342.09;1710615;82;21252;-56
2021/03/07 01:05:35;;;;;;;21.93;11.10;;;;;;;-2.92;78.62;99343.27;1710915;84;21600;-57
2021/03/07 01:08:05;;;;;;;23.70;10.93;;;;;;;-2.92;78.59;99327.79;1710712;82;21199;-56
2021/03/07 01:10:41;;;;;;;25.73;11.33;;;;;;;-2.95;78.67;99329.67;1710517;84;21170;-55
2021/03/07 01:13:16;;;;;;;23.50;11.37;;;;;;;-2.96;78.81;99322.87;1710856;84;21178;-56
2021/03/07 01:15:45;;;;;;;26.23;11.40;;;;;;;-2.98;78.96;99313.61;1710772;84;21166;-55
2021/03/07 01:18:15;;;;;;;25.27;11.63;;;;;;;-2.98;79.13;99307.98;1710792;82;21170;-56
2021/03/07 01:20:45;;;;;;;25.17;11.70;;;;;;;-2.97;79.32;99304.45;1710538;82;21300;-55
2021/03/07 01:23:15;;;;;;;22.90;11.33;;;;;;;-2.95;79.42;99312.89;1710762;84;21186;-56
2021/03/07 01:25:44;;;;;;;22.57;10.53;;;;;;;-2.95;79.47;99305.16;1710819;84;21166;-55
2021/03/07 01:28:15;;;;;;;23.20;11.30;;;;;;;-2.95;79.60;99301.76;1710537;83;21166;-56
2021/03/07 01:30:44;;;;;;;21.77;11.75;;;;;;;-2.94;79.62;99311.14;1711031;84;21158;-56
2021/03/07 01:33:14;;;;;;;25.57;12.23;;;;;;;-2.97;79.74;99304.45;1710545;84;21178;-55
2021/03/07 01:35:43;;;;;;;23.93;12.20;;;;;;;-2.98;79.87;99307.98;1710784;84;21171;-56
2021/03/07 01:38:13;;;;;;;23.40;11.73;;;;;;;-3.01;79.94;99300.91;1710538;83;21166;-56
2021/03/07 01:40:50;;;;;;;23.73;11.53;;;;;;;-3.03;80.13;99299.74;1710801;82;21225;-56
2021/03/07 01:43:21;;;;;;;26.13;12.17;;;;;;;-3.04;80.30;99299.39;1710506;82;21337;-56
2021/03/07 01:45:51;;;;;;;;;;;;;;;-3.06;80.45;99296.55;1717080;83;21177;-54
2021/03/07 01:48:22;;;;;;;25.25;12.80;;;;;;;-3.05;80.44;99291.74;1724235;83;20137;-56
2021/03/07 01:50:53;;;;;;;23.83;12.30;;;;;;;-3.07;80.68;99291.86;1724381;83;21169;-55
2021/03/07 01:53:22;;;;;;;28.32;12.55;;;;;;;-3.05;80.85;99291.74;1724427;83;21186;-56
2021/03/07 01:55:51;;;;;;;23.73;13.00;;;;;;;-3.04;80.86;99280.05;1724402;83;21201;-56
2021/03/07 01:58:33;;;;;;;25.02;11.83;;;;;;;-3.06;80.90;99278.03;1724455;83;21173;-56
2021/03/07 02:01:02;;;;;;;25.37;12.95;;;;;;;-3.07;80.99;99282.83;1724221;83;21154;-56
2021/03/07 02:03:33;;;;;;;24.90;12.37;;;;;;;-3.07;81.06;99269.12;1724291;82;21217;-56
2021/03/07 02:06:05;;;;;;;24.70;11.83;;;;;;;-3.06;81.04;99269.47;1724143;82;21183;-56
2021/03/07 02:08:36;;;;;;;24.83;12.67;;;;;;;-3.10;81.17;99265.45;1724232;83;21158;-55
2021/03/07 02:11:06;;;;;;;22.32;12.30;;;;;;;-3.10;81.28;99257.25;1724184;82;21468;-57
2021/03/07 02:13:39;;;;;;;24.30;12.60;;;;;;;-3.12;81.32;99263.00;1697866;83;21142;-56
2021/03/07 02:16:13;;;;;;;23.80;12.27;;;;;;;-3.14;81.51;99258.43;1724157;82;21150;-56
2021/03/07 02:18:44;;;;;;;25.73;13.20;;;;;;;-3.14;81.58;99247.30;1724116;83;21150;-56
2021/03/07 02:21:24;;;;;;;26.80;13.38;;;;;;;-3.14;81.54;99251.98;1724088;82;21137;-56
2021/03/07 02:24:11;;;;;;;26.20;13.23;;;;;;;-3.15;81.60;99250.34;1724195;83;21186;-55
2021/03/07 02:26:47;;;;;;;26.47;12.77;;;;;;;-3.16;81.72;99238.83;1724186;83;21146;-56
2021/03/07 02:29:18;;;;;;;24.93;12.07;;;;;;;-3.15;81.79;99235.30;1724088;83;21158;-55
2021/03/07 02:31:54;;;;;;;23.62;11.90;;;;;;;-3.14;81.77;99235.22;1724321;82;21154;-56
2021/03/07 02:34:42;;;;;;;24.07;12.60;;;;;;;-3.13;81.89;99236.86;1720379;83;21610;-56
2021/03/07 02:37:12;;;;;;;25.93;12.73;;;;;;;-3.10;81.89;99233.22;1724120;82;21162;-55
2021/03/07 02:39:42;;;;;;;24.40;13.33;;;;;;;-3.09;81.76;99224.57;1724495;82;21170;-56
2021/03/07 02:42:14;;;;;;;26.13;12.90;;;;;;;-3.10;81.67;99219.03;1675423;83;21593;-56
2021/03/07 02:44:58;;;;;;;22.67;12.43;;;;;;;-3.10;81.68;99221.14;1723975;83;21157;-55
2021/03/07 02:47:28;;;;;;;25.07;12.60;;;;;;;-3.11;81.55;99214.81;1724029;83;21186;-55
2021/03/07 02:49:57;;;;;;;24.37;13.00;;;;;;;-3.13;81.59;99200.75;1724091;83;21181;-56
2021/03/07 02:52:26;;;;;;;26.77;12.90;;;;;;;-3.11;81.62;99198.05;1697803;82;21174;-56
2021/03/07 02:54:56;;;;;;;24.93;12.47;;;;;;;-3.11;81.51;99195.47;1724129;83;21210;-56
2021/03/07 02:57:26;;;;;;;26.23;13.30;;;;;;;-3.10;81.49;99191.95;1724028;82;21134;-56
2021/03/07 02:59:56;;;;;;;26.30;12.70;;;;;;;-3.10;81.45;99194.06;1724086;83;21355;-56
2021/03/07 03:02:30;;;;;;;26.53;11.90;;;;;;;-3.10;81.39;99182.92;1724202;82;21174;-56
2021/03/07 03:05:01;;;;;;;26.00;12.97;;;;;;;-3.09;81.30;99182.84;1724335;83;21337;-56
2021/03/07 03:07:31;;;;;;;27.70;12.67;;;;;;;-3.09;81.08;99178.97;1723938;82;21308;-57
2021/03/07 03:10:03;;;;;;;27.17;12.30;;;;;;;-3.10;80.94;99176.01;1697920;83;21154;-57
2021/03/07 03:12:36;;;;;;;23.47;11.83;;;;;;;-3.10;80.87;99173.91;1723976;83;21154;-56
2021/03/07 03:15:08;;;;;;;25.08;12.58;;;;;;;-3.11;80.81;99170.97;1724178;83;21161;-56
2021/03/07 03:17:41;;;;;;;22.93;12.47;;;;;;;-3.10;80.80;99173.91;1698080;83;21205;-56
2021/03/07 03:20:16;;;;;;;26.07;13.40;;;;;;;-3.10;80.83;99159.25;1724364;83;21166;-56
2021/03/07 03:22:46;;;;;;;23.27;12.07;;;;;;;-3.09;80.71;99158.81;1723985;82;21146;-56
2021/03/07 03:25:16;;;;;;;25.27;12.73;;;;;;;-3.08;80.69;99159.97;1698155;83;21118;-56
2021/03/07 03:27:45;;;;;;;26.30;12.27;;;;;;;-3.05;80.63;99153.28;1724079;83;21182;-56
2021/03/07 03:30:20;;;;;;;25.27;12.70;;;;;;;-3.04;80.50;99148.95;1723917;82;21181;-56
2021/03/07 03:32:49;;;;;;;25.60;12.77;;;;;;;-3.04;80.34;99146.36;1724053;83;21166;-56
2021/03/07 03:35:19;;;;;;;25.60;12.63;;;;;;;-3.04;80.32;99147.22;1723902;83;21166;-56
2021/03/07 03:37:50;;;;;;;25.50;13.33;;;;;;;-3.03;80.21;99141.11;1724077;83;21174;-56
2021/03/07 03:40:25;;;;;;;25.65;13.25;;;;;;;-3.01;80.12;99142.28;1724373;83;21158;-56
2021/03/07 03:42:58;;;;;;;25.30;13.07;;;;;;;-3.00;80.10;99138.76;1724190;82;21222;-54
2021/03/07 03:45:27;;;;;;;24.03;12.83;;;;;;;-3.00;79.98;99132.31;1724173;83;21186;-55
2021/03/07 03:48:02;;;;;;;25.03;13.30;;;;;;;-2.98;79.93;99118.38;1711826;83;21182;-55
2021/03/07 03:50:31;;;;;;;24.50;12.40;;;;;;;-2.95;79.69;99113.44;1710464;84;21614;-55
2021/03/07 03:53:01;;;;;;;23.73;12.00;;;;;;;-2.97;79.46;99111.45;1710741;84;21202;-55
2021/03/07 03:55:30;;;;;;;24.90;12.83;;;;;;;-2.98;79.48;99104.66;1710640;84;21162;-57
2021/03/07 03:58:05;;;;;;;25.63;12.90;;;;;;;-2.97;79.42;99102.43;1710591;84;21174;-56
2021/03/07 04:00:37;;;;;;;25.00;13.07;;;;;;;-2.97;79.42;99104.54;1710569;84;21154;-55
2021/03/07 04:03:07;;;;;;;26.87;13.23;;;;;;;-2.97;79.21;99100.67;1710766;82;21539;-55
2021/03/07 04:05:37;;;;;;;23.25;12.25;;;;;;;-2.97;79.11;99098.09;1710952;82;21296;-55
2021/03/07 04:08:07;;;;;;;24.80;13.07;;;;;;;-2.99;79.06;99090.92;1710636;84;21320;-55
2021/03/07 04:10:36;;;;;;;23.42;12.25;;;;;;;-2.99;79.02;99087.52;1710728;82;21174;-55
2021/03/07 04:13:06;;;;;;;24.07;12.40;;;;;;;-3.00;78.94;99086.70;1710800;82;21757;-56
2021/03/07 04:15:36;;;;;;;23.77;13.40;;;;;;;-3.00;78.83;99081.54;1710542;84;21308;-56
2021/03/07 04:18:06;;;;;;;27.07;12.97;;;;;;;-2.99;78.97;99079.31;1710712;84;21181;-56
2021/03/07 04:20:36;;;;;;;25.37;12.85;;;;;;;-2.96;78.85;99080.38;1710986;84;21158;-56
2021/03/07 04:23:05;;;;;;;22.50;12.03;;;;;;;-2.97;78.80;99068.42;1710583;83;21567;-55
2021/03/07 04:25:35;;;;;;;26.10;12.93;;;;;;;-2.93;78.66;99070.28;1710592;84;21170;-56
2021/03/07 04:28:05;;;;;;;25.53;12.30;;;;;;;-2.93;78.53;99067.70;1710686;84;21222;-56
2021/03/07 04:30:35;;;;;;;24.67;12.20;;;;;;;-2.93;78.50;99070.28;1710727;83;21292;-56
2021/03/07 04:33:05;;;;;;;26.63;13.53;;;;;;;-2.91;78.45;99064.56;1710548;84;21188;-55
2021/03/07 04:35:38;;;;;;;28.40;13.57;;;;;;;-2.88;78.33;99062.20;1710436;84;21170;-56
2021/03/07 04:38:07;;;;;;;24.92;12.47;;;;;;;-2.89;78.18;99057.52;1669074;84;21289;-56
2021/03/07 04:40:38;;;;;;;26.90;13.60;;;;;;;-2.90;78.21;99048.61;1710778;82;21578;-58
2021/03/07 04:43:07;;;;;;;23.80;12.40;;;;;;;-2.89;78.04;99048.95;1710772;82;21179;-55
2021/03/07 04:45:36;;;;;;;22.23;12.07;;;;;;;-2.89;77.96;99047.19;1710535;82;21471;-57
2021/03/07 04:48:07;;;;;;;22.30;11.57;;;;;;;-2.87;77.75;99044.02;1710665;83;21657;-57
2021/03/07 04:50:37;;;;;;;23.30;11.68;;;;;;;-2.85;77.53;99042.16;1710553;84;21436;-56
2021/03/07 04:53:07;;;;;;;24.00;12.03;;;;;;;-2.83;77.39;99048.48;1710739;82;21178;-56
2021/03/07 04:55:36;;;;;;;22.80;12.00;;;;;;;-2.82;77.36;99043.20;1710848;82;21146;-57
2021/03/07 04:58:06;;;;;;;23.63;11.73;;;;;;;-2.80;77.08;99028.44;1710672;83;21182;-55
2021/03/07 05:00:36;;;;;;;24.47;11.23;;;;;;;-2.78;76.98;99029.60;1710744;84;21174;-56
2021/03/07 05:03:05;;;;;;;23.47;11.73;;;;;;;-2.77;76.88;99024.31;1710781;84;21174;-56
2021/03/07 05:05:35;;;;;;;22.73;11.37;;;;;;;-2.73;76.77;99021.85;1710684;82;21337;-55
2021/03/07 05:08:06;;;;;;;22.60;11.43;;;;;;;-2.67;76.47;99021.38;1710773;84;21190;-56
2021/03/07 05:10:35;;;;;;;;;;;;;;;-2.62;76.12;99020.20;1713411;83;21679;-55
2021/03/07 05:13:05;;;;;;;23.07;11.10;;;;;;;-2.58;76.01;99021.14;1710752;84;20396;-55
2021/03/07 05:15:36;;;;;;;24.40;11.53;;;;;;;-2.54;75.81;99029.44;1710564;84;21178;-56
2021/03/07 05:18:06;;;;;;;22.27;10.63;;;;;;;-2.47;75.60;99028.02;1710592;82;21158;-56
2021/03/07 05:20:36;;;;;;;22.17;11.22;;;;;;;-2.38;75.35;99027.77;1710913;82;21225;-57
2021/03/07 05:23:05;;;;;;;23.47;11.23;;;;;;;-2.30;75.26;99021.05;1710690;82;21210;-57
2021/03/07 05:25:34;;;;;;;23.07;11.03;;;;;;;-2.20;74.66;99017.27;1710589;83;21190;-56
2021/03/07 05:28:04;;;;;;;23.50;11.20;;;;;;;-2.13;74.31;99009.36;1710590;82;21174;-57
2021/03/07 05:30:36;;;;;;;21.87;11.10;;;;;;;-2.04;73.93;99009.11;1710552;82;21170;-57
2021/03/07 05:33:05;;;;;;;24.27;11.88;;;;;;;-1.94;73.52;99019.05;1710615;83;21583;-56
2021/03/07 05:35:35;;;;;;;20.82;10.58;;;;;;;-1.83;73.16;99016.89;1710624;84;21638;-56
2021/03/07 05:38:06;;;;;;;22.13;10.87;;;;;;;-1.72;72.61;99015.07;1710785;84;21174;-57
2021/03/07 05:40:36;;;;;;;23.10;10.87;;;;;;;-1.64;72.16;99007.49;1710747;84;21187;-56
2021/03/07 05:43:05;;;;;;;21.43;11.43;;;;;;;-1.54;71.78;99004.98;1710665;84;21186;-56
2021/03/07 05:45:35;;;;;;;23.60;11.27;;;;;;;-1.43;71.45;99004.09;1710638;82;21316;-57
2021/03/07 05:48:05;;;;;;;22.17;11.33;;;;;;;-1.29;70.88;99012.80;1719721;82;21182;-55
2021/03/07 05:50:35;;;;;;;21.35;10.38;;;;;;;-1.14;70.75;99004.23;1724176;83;21156;-56
2021/03/07 05:53:04;;;;;;;24.53;11.07;;;;;;;-0.96;70.34;99004.43;1697978;82;21145;-55
2021/03/07 05:55:34;;;;;;;20.80;10.10;;;;;;;-0.81;69.72;98997.92;1724132;82;21202;-56
2021/03/07 05:58:04;;;;;;;21.07;10.33;;;;;;;-0.65;69.17;98999.53;1724242;83;21165;-54
2021/03/07 06:00:34;;;;;;;21.30;10.47;;;;;;;-0.52;68.45;99001.06;1724071;83;21137;-57
2021/03/07 06:03:04;;;;;;;20.87;9.63;;;;;;;-0.44;68.10;98998.16;1724052;83;21189;-56
2021/03/07 06:05:34;;;;;;;23.20;10.30;;;;;;;-0.38;67.52;98992.44;1724298;82;21150;-57
2021/03/07 06:08:05;;;;;;;19.90;10.53;;;;;;;-0.31;67.45;98992.71;1724286;83;21153;-56
2021/03/07 06:10:36;;;;;;;21.10;10.83;;;;;;;-0.23;67.06;98987.69;1724060;82;21178;-55
2021/03/07 06:13:10;;;;;;;17.48;9.53;;;;;;;-0.17;66.75;98989.73;1698667;83;21170;-57
2021/03/07 06:15:46;;;;;;;21.87;9.87;;;;;;;-0.09;66.59;98982.56;1721007;83;21146;-57
2021/03/07 06:18:19;;;;;;;21.47;10.23;;;;;;;-0.02;66.14;98981.05;1724442;83;21114;-55
2021/03/07 06:20:51;;;;;;;19.30;9.37;;;;;;;0.03;66.11;98984.54;1724310;83;21165;-56
2021/03/07 06:23:39;;;;;;;20.63;9.90;;;;;;;0.13;65.80;98980.17;1724209;83;21328;-56
2021/03/07 06:26:10;;;;;;;20.10;9.23;;;;;;;0.19;65.64;98977.84;1723893;82;21177;-56
2021/03/07 06:28:40;;;;;;;20.03;9.37;;;;;;;0.29;65.31;98975.69;1724051;83;21165;-57
2021/03/07 06:31:31;;;;;;;20.20;9.53;;;;;;;0.36;64.93;98969.02;1724213;82;21142;-56
2021/03/07 06:34:02;;;;;;;17.07;8.83;;;;;;;0.43;64.61;98958.41;1724510;83;21574;-57
2021/03/07 06:36:32;;;;;;;18.50;8.93;;;;;;;0.47;64.24;98968.37;1724061;83;21158;-55
2021/03/07 06:39:04;;;;;;;16.63;8.80;;;;;;;0.53;63.94;98970.88;1723982;83;21166;-56
2021/03/07 06:41:34;;;;;;;19.67;8.87;;;;;;;0.60;63.49;98981.02;1723954;82;21178;-56
2021/03/07 06:44:13;;;;;;;21.37;9.83;;;;;;;0.65;63.20;98971.53;1724052;83;21158;-56
2021/03/07 06:46:45;;;;;;;18.03;9.83;;;;;;;0.70;63.01;98971.92;1723999;83;21154;-56
2021/03/07 06:49:28;;;;;;;21.40;9.97;;;;;;;0.74;62.72;98958.98;1724114;83;21161;-55
2021/03/07 06:52:19;;;;;;;26.03;9.77;;;;;;;0.76;62.41;98961.79;1724379;83;21570;-56
2021/03/07 06:55:12;;;;;;;21.43;9.17;;;;;;;0.79;62.18;98965.86;1723919;82;21190;-55
2021/03/07 06:57:42;;;;;;;21.13;10.27;;;;;;;0.79;61.95;98967.97;1724311;83;21189;-56
2021/03/07 07:00:13;;;;;;;20.50;8.77;;;;;;;0.89;62.02;98947.66;1724327;83;21324;-55
2021/03/07 07:03:11;;;;;;;20.17;9.63;;;;;;;0.98;61.72;98947.63;1724072;82;21137;-58
2021/03/07 07:05:49;;;;;;;21.03;9.13;;;;;;;1.11;61.54;98947.77;1724061;82;21166;-56
2021/03/07 07:08:43;;;;;;;21.00;8.73;;;;;;;1.20;60.89;98940.38;1724080;83;21154;-56
2021/03/07 07:11:13;;;;;;;19.87;9.27;;;;;;;1.26;60.50;98946.29;1717638;83;21162;-56
2021/03/07 07:13:48;;;;;;;19.02;8.40;;;;;;;1.36;60.14;98935.85;1724419;83;21495;-56
2021/03/07 07:16:19;;;;;;;17.73;9.00;;;;;;;1.45;59.85;98933.20;1720283;82;21189;-56
2021/03/07 07:18:49;;;;;;;21.57;7.70;;;;;;;1.51;59.37;98929.19;1724184;83;21178;-55
2021/03/07 07:21:19;;;;;;;18.60;8.10;;;;;;;1.58;58.87;98916.75;1724059;83;21194;-56
2021/03/07 07:23:49;;;;;;;17.67;8.00;;;;;;;1.64;58.88;98922.31;1724253;82;21205;-57
2021/03/07 07:26:19;;;;;;;18.93;8.70;;;;;;;1.75;58.60;98922.09;1724339;83;21597;-57
2021/03/07 07:28:49;;;;;;;21.17;8.47;;;;;;;1.81;58.41;98923.60;1724506;83;21178;-56
2021/03/07 07:31:46;;;;;;;17.83;8.07;;;;;;;1.86;58.24;98899.77;1724198;82;21609;-59
2021/03/07 07:34:21;;;;;;;18.67;8.90;;;;;;;1.90;57.85;98909.39;1724496;83;21688;-57
2021/03/07 07:37:15;;;;;;;18.73;8.35;;;;;;;1.98;57.60;98908.14;1724033;83;21138;-57
2021/03/07 07:39:49;;;;;;;17.50;8.13;;;;;;;2.06;57.52;98905.58;1724092;83;21177;-59
2021/03/07 07:42:26;;;;;;;16.43;7.60;;;;;;;2.13;57.13;98899.64;1724146;82;21181;-57
2021/03/07 07:45:12;;;;;;;20.00;8.53;;;;;;;2.16;56.40;98886.80;1723762;82;24232;-56
2021/03/07 07:47:44;;;;;;;25.95;8.15;;;;;;;2.13;56.70;98893.63;1719347;83;21320;-57
2021/03/07 07:50:36;;;;;;;16.67;8.27;;;;;;;2.15;56.84;98890.38;1710594;83;21127;-56
2021/03/07 07:53:09;;;;;;;17.20;7.97;;;;;;;2.16;56.92;98896.39;1710467;84;21159;-57
2021/03/07 07:55:53;;;;;;;19.47;7.63;;;;;;;2.07;56.66;98898.14;1707946;84;21151;-56
2021/03/07 07:58:42;;;;;;;16.37;7.80;;;;;;;1.99;56.78;98883.77;1710474;83;21183;-56
2021/03/07 08:01:13;;;;;;;16.07;7.60;;;;;;;1.94;57.10;98897.21;1710589;83;21178;-57
2021/03/07 08:03:44;;;;;;;19.15;8.40;;;;;;;1.92;57.16;98887.95;1710821;82;21158;-55
2021/03/07 08:06:30;;;;;;;16.77;7.67;;;;;;;1.86;57.23;98888.87;1710723;82;21635;-56
2021/03/07 08:09:01;;;;;;;17.62;8.10;;;;;;;1.83;57.42;98878.77;1710336;82;21127;-55
2021/03/07 08:11:33;;;;;;;18.80;8.73;;;;;;;1.80;57.62;98886.07;1691215;84;21269;-57
2021/03/07 08:14:03;;;;;;;17.60;8.53;;;;;;;1.73;57.91;98881.97;1710690;84;21178;-55
2021/03/07 08:16:45;;;;;;;21.55;9.33;;;;;;;1.70;58.38;98871.05;1710810;84;21199;-56
2021/03/07 08:19:19;;;;;;;17.90;8.27;;;;;;;1.70;58.51;98876.23;1710483;84;21159;-56
2021/03/07 08:22:08;;;;;;;16.43;8.03;;;;;;;1.71;58.80;98866.17;1710495;84;21119;-57
2021/03/07 08:24:56;;;;;;;22.10;9.53;;;;;;;1.73;59.01;98858.58;1710354;82;21277;-57
2021/03/07 08:27:38;;;;;;;22.03;8.77;;;;;;;1.73;58.99;98857.27;1710694;83;21127;-57
2021/03/07 08:30:15;;;;;;;17.30;8.10;;;;;;;1.75;59.17;98859.72;1710714;84;21575;-56
2021/03/07 08:32:46;;;;;;;20.27;8.90;;;;;;;1.77;59.13;98857.77;1710576;84;21186;-57
2021/03/07 08:35:18;;;;;;;18.67;8.80;;;;;;;1.80;59.05;98857.00;1710652;84;21182;-56
2021/03/07 08:38:16;;;;;;;21.83;9.60;;;;;;;1.86;59.27;98852.97;1710460;83;21205;-56
2021/03/07 08:40:56;;;;;;;23.63;9.83;;;;;;;1.94;59.00;98851.72;1710712;82;21191;-55
2021/03/07 08:43:31;;;;;;;19.77;9.20;;;;;;;2.02;58.96;98847.89;1710461;82;21154;-56
2021/03/07 08:46:14;;;;;;;18.77;8.07;;;;;;;2.11;58.83;98845.64;1710632;84;21170;-58
2021/03/07 08:48:51;;;;;;;16.33;7.93;;;;;;;2.23;58.65;98834.98;1710597;82;21313;-57
2021/03/07 08:51:21;;;;;;;15.83;8.03;;;;;;;2.38;58.34;98834.73;1710782;82;21143;-56
2021/03/07 08:53:51;;;;;;;17.43;7.77;;;;;;;2.45;57.88;98827.12;1710802;84;21165;-56
2021/03/07 08:56:20;;;;;;;19.97;9.00;;;;;;;2.50;57.72;98832.67;1710710;84;21171;-57
2021/03/07 08:58:49;;;;;;;22.83;8.00;;;;;;;2.55;57.69;98822.61;1668389;84;21158;-57
2021/03/07 09:01:18;;;;;;;17.57;8.33;;;;;;;2.68;57.61;98810.45;1710719;84;21174;-57
2021/03/07 09:03:57;;;;;;;17.48;8.60;;;;;;;2.76;57.09;98807.39;1710703;84;21206;-56
2021/03/07 09:06:40;;;;;;;16.00;8.47;;;;;;;2.77;56.99;98805.61;1710600;82;21226;-55
2021/03/07 09:09:16;;;;;;;19.23;8.30;;;;;;;2.85;56.94;98796.50;1710862;82;21654;-58
2021/03/07 09:11:57;;;;;;;14.47;7.67;;;;;;;2.99;56.50;98799.80;1710635;84;21167;-58
2021/03/07 09:14:31;;;;;;;15.93;7.75;;;;;;;3.12;56.41;98799.31;1710731;83;21186;-56
2021/03/07 09:17:03;;;;;;;16.93;8.70;;;;;;;3.24;56.01;98801.92;1710875;82;21566;-57
2021/03/07 09:19:37;;;;;;;17.80;8.70;;;;;;;3.31;55.92;98797.69;1710529;83;21178;-58
2021/03/07 09:22:17;;;;;;;18.47;8.47;;;;;;;3.38;55.75;98791.33;1710666;83;21135;-55
2021/03/07 09:25:15;;;;;;;18.80;9.20;;;;;;;3.44;55.72;98798.49;1711069;82;21182;-61
2021/03/07 09:27:41;;;;;;;18.50;9.60;;;;;;;3.48;55.41;98794.59;1710381;84;21119;-58
2021/03/07 09:30:16;;;;;;;18.23;8.75;;;;;;;3.51;55.45;98796.89;1710795;84;21182;-56
2021/03/07 09:32:50;;;;;;;19.77;8.73;;;;;;;3.51;55.22;98785.16;1710632;84;21155;-58
2021/03/07 09:35:27;;;;;;;18.90;10.30;;;;;;;3.51;55.25;98789.56;1710707;82;21123;-57
2021/03/07 09:38:05;;;;;;;20.40;8.90;;;;;;;3.46;55.34;98796.56;1710816;84;21590;-55
2021/03/07 09:40:39;;;;;;;21.52;9.48;;;;;;;3.44;55.39;98791.52;1710751;83;21694;-58
2021/03/07 09:43:14;;;;;;;18.53;9.37;;;;;;;3.44;55.59;98796.73;1710565;83;21606;-56
2021/03/07 09:45:51;;;;;;;19.57;9.77;;;;;;;3.46;55.80;98794.77;1691226;84;21158;-56
2021/03/07 09:48:22;;;;;;;17.23;8.80;;;;;;;3.45;55.17;98790.53;1714498;83;21141;-55
2021/03/07 09:50:52;;;;;;;20.63;9.90;;;;;;;3.48;55.31;98777.66;1724353;83;21138;-56
2021/03/07 09:53:22;;;;;;;19.70;9.00;;;;;;;3.54;55.21;98764.45;1724464;83;21165;-58
2021/03/07 09:55:52;;;;;;;22.22;10.32;;;;;;;3.56;54.69;98766.42;1724422;83;21308;-56
2021/03/07 09:58:21;;;;;;;22.87;12.07;;;;;;;3.55;54.93;98779.11;1724074;83;21157;-56
2021/03/07 10:00:51;;;;;;;22.25;11.18;;;;;;;3.58;55.40;98778.30;1724341;83;21173;-57
2021/03/07 10:03:24;;;;;;;21.77;11.18;;;;;;;3.65;55.74;98779.75;1724516;83;21312;-56
2021/03/07 10:06:17;;;;;;;26.75;11.43;;;;;;;3.68;55.46;98770.31;1724195;82;21170;-55
2021/03/07 10:08:49;;;;;;;15.72;8.00;;;;;;;3.68;55.16;98769.02;1699256;83;21725;-56
2021/03/07 10:11:23;;;;;;;21.95;11.60;;;;;;;3.67;54.87;98758.23;1718334;83;21300;-55
2021/03/07 10:14:04;;;;;;;20.12;9.35;;;;;;;3.64;55.12;98760.70;1724256;83;21157;-56
2021/03/07 10:16:34;;;;;;;;;;;;;;;3.69;55.29;98766.23;1726557;83;21166;-56
2021/03/07 10:19:12;;;;;;;21.83;10.33;;;;;;;3.68;55.15;98762.00;1724347;83;20157;-55
2021/03/07 10:21:42;;;;;;;18.80;9.88;;;;;;;3.63;55.60;98766.89;1724562;82;21126;-56
2021/03/07 10:24:16;;;;;;;21.42;10.05;;;;;;;3.67;55.92;98755.62;1724370;83;21881;-56
2021/03/07 10:26:50;;;;;;;18.57;8.83;;;;;;;3.68;55.86;98755.48;1724191;82;21149;-56
2021/03/07 10:29:29;;;;;;;22.37;10.27;;;;;;;3.69;55.80;98753.69;1724380;82;21162;-56
2021/03/07 10:32:05;;;;;;;17.62;8.75;;;;;;;3.73;56.02;98744.56;1724121;83;21291;-55
2021/03/07 10:34:48;;;;;;;17.93;8.97;;;;;;;3.69;55.38;98736.25;1720469;83;21157;-56
2021/03/07 10:37:42;;;;;;;20.13;9.67;;;;;;;3.62;55.44;98739.20;1724352;83;21182;-55
2021/03/07 10:40:13;;;;;;;18.55;9.55;;;;;;;3.56;56.03;98741.17;1724318;82;21126;-58
2021/03/07 10:42:45;;;;;;;21.85;9.80;;;;;;;3.61;55.88;98722.41;1724528;83;21696;-55
2021/03/07 10:45:24;;;;;;;19.20;10.60;;;;;;;3.58;55.68;98716.23;1724435;83;21566;-56
2021/03/07 10:48:06;;;;;;;19.67;9.88;;;;;;;3.54;55.89;98719.66;1724353;83;21316;-55
2021/03/07 10:50:36;;;;;;;18.50;9.35;;;;;;;3.50;55.76;98711.02;1724258;83;21154;-56
2021/03/07 10:53:06;;;;;;;19.05;10.82;;;;;;;3.43;55.96;98718.70;1724370;82;21555;-56
2021/03/07 10:55:36;;;;;;;22.48;11.28;;;;;;;3.42;56.07;98715.28;1724218;82;21141;-55
2021/03/07 10:58:05;;;;;;;22.58;13.22;;;;;;;3.39;56.34;98710.41;1724215;83;21173;-55
2021/03/07 11:00:34;;;;;;;24.67;12.53;;;;;;;3.34;56.63;98715.80;1724056;83;21134;-55
2021/03/07 11:03:05;;;;;;;25.02;13.15;;;;;;;3.29;57.02;98709.77;1724344;83;21622;-55
2021/03/07 11:05:35;;;;;;;28.75;16.20;;;;;;;3.29;57.54;98700.65;1724132;82;21387;-56
2021/03/07 11:08:06;;;;;;;21.23;11.00;;;;;;;3.28;57.81;98693.81;1724336;83;21601;-55
2021/03/07 11:10:35;;;;;;;22.00;10.82;;;;;;;3.28;57.62;98695.61;1724149;82;21169;-55
2021/03/07 11:13:05;;;;;;;20.72;10.78;;;;;;;3.23;58.00;98694.80;1724117;83;21173;-55
2021/03/07 11:15:34;;;;;;;20.48;10.45;;;;;;;3.19;58.18;98687.78;1723954;83;21321;-56
2021/03/07 11:18:04;;;;;;;19.60;10.67;;;;;;;3.17;58.42;98669.41;1724262;83;21304;-54
2021/03/07 11:20:34;;;;;;;17.70;9.60;;;;;;;3.16;58.68;98673.80;1724155;83;21126;-55
2021/03/07 11:23:03;;;;;;;23.33;10.70;;;;;;;3.18;58.69;98672.33;1724085;83;21182;-56
2021/03/07 11:25:33;;;;;;;20.82;10.13;;;;;;;3.24;58.92;98671.67;1724241;82;21578;-56
2021/03/07 11:28:04;;;;;;;25.00;12.82;;;;;;;3.26;58.88;98671.50;1724277;82;21186;-56
2021/03/07 11:30:33;;;;;;;25.70;12.98;;;;;;;3.24;58.93;98663.86;1724064;83;21161;-55
2021/03/07 11:33:03;;;;;;;25.97;13.80;;;;;;;3.22;59.07;98661.91;1724008;83;21331;-55
2021/03/07 11:35:33;;;;;;;31.80;14.83;;;;;;;3.18;59.38;98654.09;1724300;82;21292;-55
2021/03/07 11:38:02;;;;;;;22.60;12.10;;;;;;;3.12;59.37;98656.88;1724281;83;21185;-55
2021/03/07 11:40:31;;;;;;;24.37;11.63;;;;;;;3.04;59.54;98639.97;1724216;83;21319;-56
2021/03/07 11:43:01;;;;;;;18.48;10.10;;;;;;;2.99;59.78;98657.88;1724261;83;21528;-55
2021/03/07 11:45:30;;;;;;;18.80;8.95;;;;;;;2.96;59.96;98646.95;1724161;82;21339;-56
2021/03/07 11:48:00;;;;;;;16.95;9.00;;;;;;;2.93;60.21;98641.61;1724312;83;21210;-55
2021/03/07 11:50:30;;;;;;;20.02;8.90;;;;;;;2.95;60.28;98654.45;1711932;83;21217;-55